EVA169 RKSI-RCTP
Flight info
| Callsign | EVA169 |
|---|---|
| Flight time | 2h 15m |
| Altitude | 37000 |
| Route | BOPTA2Y BOPTA Z51 BEDES Y711 MUGUS Y742 SALMI B576 BAKER BAKER1A |
| Aircraft | B77W/H-SDE1E2E3FGHIJ2J3J4J5M1RWXY/LB1D1 |
Departure
| Time | 2026-05-04 05:18 |
|---|---|
| Airport | Incheon International Airport (RKSI) |
Arrival
| Time | 2026-05-04 07:33 |
|---|---|
| Airport | Taiwan Taoyuan International Airport (RCTP) |
| Time | Latitude | Longitude | Altitude | Speed | Heading |
|---|---|---|---|---|---|
| 2026-05-04 04:47 | 37.45126 | 126.45589 | 35 ft | 0 kts | 194° |
| 2026-05-04 05:09 | 37.45186 | 126.45606 | 35 ft | 2 kts | 173° |
| 2026-05-04 05:09 | 37.45200 | 126.45601 | 35 ft | 2 kts | 153° |
| 2026-05-04 05:10 | 37.45213 | 126.45590 | 35 ft | 2 kts | 135° |
| 2026-05-04 05:10 | 37.45222 | 126.45576 | 35 ft | 2 kts | 116° |
| 2026-05-04 05:10 | 37.45227 | 126.45558 | 35 ft | 2 kts | 97° |
| 2026-05-04 05:10 | 37.45227 | 126.45549 | 35 ft | 0 kts | 95° |
| 2026-05-04 05:14 | 37.45227 | 126.45550 | 35 ft | 0 kts | 95° |
| 2026-05-04 05:14 | 37.45224 | 126.45583 | 35 ft | 7 kts | 102° |
| 2026-05-04 05:15 | 37.45205 | 126.45668 | 35 ft | 8 kts | 91° |
| 2026-05-04 05:15 | 37.45254 | 126.45760 | 35 ft | 15 kts | 52° |
| 2026-05-04 05:15 | 37.45329 | 126.45890 | 35 ft | 20 kts | 54° |
| 2026-05-04 05:15 | 37.45363 | 126.45950 | 35 ft | 4 kts | 54° |
| 2026-05-04 05:16 | 37.45387 | 126.45992 | 35 ft | 7 kts | 54° |
| 2026-05-04 05:16 | 37.45426 | 126.46052 | 35 ft | 9 kts | 28° |
| 2026-05-04 05:16 | 37.45473 | 126.46036 | 35 ft | 0 kts | 326° |
| 2026-05-04 05:17 | 37.45478 | 126.46032 | 35 ft | 3 kts | 326° |
| 2026-05-04 05:18 | 37.45590 | 126.45934 | 35 ft | 49 kts | 324° |
| 2026-05-04 05:18 | 37.46072 | 126.45503 | 36 ft | 118 kts | 324° |
| 2026-05-04 05:18 | 37.46907 | 126.44772 | 167 ft | 162 kts | 322° |
| 2026-05-04 05:18 | 37.47875 | 126.43993 | 808 ft | 166 kts | 324° |
| 2026-05-04 05:19 | 37.48817 | 126.43221 | 1692 ft | 164 kts | 324° |
| 2026-05-04 05:19 | 37.49745 | 126.42439 | 2575 ft | 162 kts | 324° |
| 2026-05-04 05:19 | 37.50678 | 126.41650 | 3361 ft | 164 kts | 324° |
| 2026-05-04 05:19 | 37.51627 | 126.40848 | 3935 ft | 171 kts | 325° |
| 2026-05-04 05:20 | 37.52667 | 126.39969 | 4299 ft | 187 kts | 325° |
| 2026-05-04 05:20 | 37.53786 | 126.39024 | 4682 ft | 203 kts | 325° |
| 2026-05-04 05:20 | 37.55016 | 126.37985 | 5120 ft | 219 kts | 326° |
| 2026-05-04 05:20 | 37.56319 | 126.36866 | 5559 ft | 235 kts | 322° |
| 2026-05-04 05:21 | 37.57422 | 126.35268 | 6034 ft | 250 kts | 299° |
| 2026-05-04 05:21 | 37.57914 | 126.33157 | 6754 ft | 259 kts | 278° |
| 2026-05-04 05:21 | 37.57962 | 126.30875 | 7478 ft | 264 kts | 274° |
| 2026-05-04 05:21 | 37.57954 | 126.28550 | 8236 ft | 268 kts | 274° |
| 2026-05-04 05:22 | 37.57953 | 126.26219 | 8962 ft | 271 kts | 275° |
| 2026-05-04 05:22 | 37.57832 | 126.23828 | 9613 ft | 281 kts | 262° |
| 2026-05-04 05:22 | 37.57003 | 126.21526 | 10228 ft | 297 kts | 242° |
| 2026-05-04 05:22 | 37.55640 | 126.19442 | 10598 ft | 320 kts | 229° |
| 2026-05-04 05:23 | 37.53830 | 126.17675 | 10949 ft | 344 kts | 215° |
| 2026-05-04 05:23 | 37.51575 | 126.16417 | 11336 ft | 367 kts | 199° |
| 2026-05-04 05:23 | 37.48963 | 126.15799 | 11735 ft | 387 kts | 188° |
| 2026-05-04 05:23 | 37.46224 | 126.15767 | 12179 ft | 405 kts | 176° |
| 2026-05-04 05:24 | 37.43382 | 126.16421 | 12758 ft | 419 kts | 164° |
| 2026-05-04 05:24 | 37.40660 | 126.17739 | 13561 ft | 426 kts | 153° |
| 2026-05-04 05:24 | 37.38105 | 126.19707 | 14474 ft | 431 kts | 142° |
| 2026-05-04 05:24 | 37.35847 | 126.22162 | 15438 ft | 436 kts | 135° |
| 2026-05-04 05:25 | 37.33698 | 126.24805 | 16429 ft | 439 kts | 133° |
| 2026-05-04 05:25 | 37.31564 | 126.27580 | 17352 ft | 446 kts | 132° |
| 2026-05-04 05:25 | 37.29420 | 126.30452 | 18267 ft | 452 kts | 132° |
| 2026-05-04 05:25 | 37.27291 | 126.33361 | 19150 ft | 459 kts | 131° |
| 2026-05-04 05:26 | 37.25129 | 126.36352 | 20006 ft | 465 kts | 132° |
| 2026-05-04 05:26 | 37.22949 | 126.39391 | 20780 ft | 473 kts | 132° |
| 2026-05-04 05:26 | 37.20586 | 126.42230 | 21573 ft | 478 kts | 142° |
| 2026-05-04 05:26 | 37.17852 | 126.44614 | 22359 ft | 481 kts | 152° |
| 2026-05-04 05:27 | 37.14834 | 126.46450 | 23131 ft | 483 kts | 161° |
| 2026-05-04 05:28 | 36.91870 | 126.55600 | 28451 ft | 506 kts | 172° |
| 2026-05-04 05:29 | 36.88457 | 126.56718 | 29166 ft | 510 kts | 172° |
| 2026-05-04 05:29 | 36.85049 | 126.57836 | 29932 ft | 511 kts | 172° |
| 2026-05-04 05:29 | 36.81633 | 126.58959 | 30782 ft | 509 kts | 172° |
| 2026-05-04 05:29 | 36.78223 | 126.60082 | 31695 ft | 502 kts | 172° |
| 2026-05-04 05:31 | 36.55152 | 126.67788 | 36087 ft | 482 kts | 174° |
| 2026-05-04 05:31 | 36.51899 | 126.68877 | 36577 ft | 482 kts | 175° |
| 2026-05-04 05:32 | 36.48640 | 126.69967 | 36961 ft | 483 kts | 175° |
| 2026-05-04 05:32 | 36.45369 | 126.71056 | 37001 ft | 490 kts | 175° |
| 2026-05-04 05:33 | 36.35391 | 126.74392 | 37005 ft | 497 kts | 174° |
| 2026-05-04 05:33 | 36.28749 | 126.76637 | 37005 ft | 496 kts | 174° |
| 2026-05-04 05:34 | 36.22044 | 126.78899 | 37006 ft | 493 kts | 175° |
| 2026-05-04 05:34 | 36.15367 | 126.80726 | 37005 ft | 483 kts | 185° |
| 2026-05-04 05:34 | 36.12064 | 126.80832 | 37007 ft | 471 kts | 193° |
| 2026-05-04 05:35 | 36.08741 | 126.80527 | 37007 ft | 468 kts | 195° |
| 2026-05-04 05:35 | 36.02352 | 126.79841 | 37013 ft | 460 kts | 195° |
| 2026-05-04 05:36 | 35.95917 | 126.79140 | 37018 ft | 463 kts | 195° |
| 2026-05-04 05:36 | 35.89559 | 126.78452 | 37021 ft | 461 kts | 195° |
| 2026-05-04 05:37 | 35.83133 | 126.77755 | 37029 ft | 461 kts | 195° |
| 2026-05-04 05:37 | 35.76780 | 126.77068 | 37027 ft | 459 kts | 196° |
| 2026-05-04 05:38 | 35.67256 | 126.76040 | 37025 ft | 456 kts | 196° |
| 2026-05-04 05:38 | 35.60923 | 126.75358 | 37020 ft | 454 kts | 196° |
| 2026-05-04 05:39 | 35.51432 | 126.74335 | 37019 ft | 455 kts | 196° |
| 2026-05-04 05:40 | 35.42030 | 126.73329 | 37019 ft | 450 kts | 196° |
| 2026-05-04 05:40 | 35.35773 | 126.72661 | 37017 ft | 447 kts | 197° |
| 2026-05-04 05:41 | 35.29519 | 126.71990 | 37016 ft | 449 kts | 197° |
| 2026-05-04 05:41 | 35.23333 | 126.71332 | 37022 ft | 447 kts | 196° |
| 2026-05-04 05:42 | 35.17088 | 126.70667 | 37016 ft | 446 kts | 197° |
| 2026-05-04 05:42 | 35.10871 | 126.70007 | 37017 ft | 445 kts | 197° |
| 2026-05-04 05:43 | 35.04667 | 126.69347 | 37021 ft | 444 kts | 197° |
| 2026-05-04 05:45 | 34.80194 | 126.66756 | 37038 ft | 440 kts | 197° |
| 2026-05-04 05:47 | 34.55763 | 126.64188 | 37046 ft | 439 kts | 197° |
| 2026-05-04 05:47 | 34.49658 | 126.63546 | 37060 ft | 440 kts | 197° |
| 2026-05-04 05:48 | 34.43582 | 126.62910 | 37046 ft | 438 kts | 197° |
| 2026-05-04 05:48 | 34.37498 | 126.62274 | 37047 ft | 439 kts | 197° |
| 2026-05-04 05:49 | 34.31382 | 126.61636 | 37057 ft | 440 kts | 197° |
| 2026-05-04 05:49 | 34.25314 | 126.61006 | 37050 ft | 437 kts | 197° |
| 2026-05-04 05:51 | 34.01045 | 126.58476 | 37062 ft | 439 kts | 197° |
| 2026-05-04 05:52 | 33.94942 | 126.57843 | 37067 ft | 439 kts | 197° |
| 2026-05-04 05:52 | 33.88879 | 126.57216 | 37071 ft | 438 kts | 197° |
| 2026-05-04 05:54 | 33.66421 | 126.49052 | 37087 ft | 414 kts | 210° |
| 2026-05-04 05:55 | 33.60995 | 126.46702 | 37088 ft | 415 kts | 210° |
| 2026-05-04 05:55 | 33.55538 | 126.44344 | 37088 ft | 413 kts | 210° |
| 2026-05-04 05:56 | 33.50093 | 126.41993 | 37091 ft | 413 kts | 210° |
| 2026-05-04 05:56 | 33.44660 | 126.39650 | 37090 ft | 416 kts | 210° |
| 2026-05-04 05:57 | 33.39196 | 126.37299 | 37086 ft | 414 kts | 210° |
| 2026-05-04 05:57 | 33.33760 | 126.34964 | 37085 ft | 413 kts | 209° |
| 2026-05-04 05:58 | 33.28302 | 126.32619 | 37106 ft | 417 kts | 209° |
| 2026-05-04 05:58 | 33.22842 | 126.30283 | 37104 ft | 413 kts | 209° |
| 2026-05-04 05:59 | 33.17345 | 126.27928 | 37102 ft | 417 kts | 209° |
| 2026-05-04 05:59 | 33.11928 | 126.25614 | 37099 ft | 414 kts | 209° |
| 2026-05-04 06:00 | 33.06526 | 126.23310 | 37096 ft | 411 kts | 210° |
| 2026-05-04 06:00 | 33.01045 | 126.20971 | 37103 ft | 416 kts | 209° |
| 2026-05-04 06:01 | 32.95599 | 126.18637 | 37083 ft | 415 kts | 210° |
| 2026-05-04 06:03 | 32.73918 | 126.09345 | 37112 ft | 414 kts | 209° |
| 2026-05-04 06:05 | 32.49501 | 125.98943 | 37117 ft | 414 kts | 210° |
| 2026-05-04 06:06 | 32.44014 | 125.96615 | 37112 ft | 414 kts | 209° |
| 2026-05-04 06:06 | 32.38564 | 125.94307 | 37111 ft | 414 kts | 209° |
| 2026-05-04 06:07 | 32.33144 | 125.92015 | 37105 ft | 415 kts | 209° |
| 2026-05-04 06:07 | 32.27701 | 125.89717 | 37095 ft | 413 kts | 209° |
| 2026-05-04 06:08 | 32.22234 | 125.87409 | 37091 ft | 416 kts | 209° |
| 2026-05-04 06:08 | 32.16791 | 125.85117 | 37089 ft | 415 kts | 209° |
| 2026-05-04 06:09 | 32.11319 | 125.82816 | 37088 ft | 413 kts | 209° |
| 2026-05-04 06:11 | 31.89528 | 125.73657 | 37085 ft | 416 kts | 210° |
| 2026-05-04 06:13 | 31.67676 | 125.64500 | 37099 ft | 416 kts | 210° |
| 2026-05-04 06:14 | 31.48511 | 125.56482 | 37098 ft | 417 kts | 210° |
| 2026-05-04 06:15 | 31.43036 | 125.54190 | 37097 ft | 415 kts | 209° |
| 2026-05-04 06:15 | 31.37627 | 125.51928 | 37095 ft | 414 kts | 209° |
| 2026-05-04 06:16 | 31.32164 | 125.49645 | 37092 ft | 415 kts | 210° |
| 2026-05-04 06:16 | 31.26656 | 125.47346 | 37093 ft | 419 kts | 210° |
| 2026-05-04 06:17 | 31.21214 | 125.45080 | 37088 ft | 418 kts | 210° |
| 2026-05-04 06:17 | 31.15720 | 125.42794 | 37091 ft | 417 kts | 210° |
| 2026-05-04 06:18 | 31.10273 | 125.40530 | 37095 ft | 417 kts | 210° |
| 2026-05-04 06:20 | 30.88421 | 125.31476 | 37124 ft | 415 kts | 210° |
| 2026-05-04 06:21 | 30.74691 | 125.25808 | 37122 ft | 419 kts | 209° |
| 2026-05-04 06:22 | 30.69168 | 125.23534 | 37121 ft | 419 kts | 209° |
| 2026-05-04 06:25 | 30.30902 | 125.07845 | 37121 ft | 417 kts | 210° |
| 2026-05-04 06:26 | 30.25430 | 125.05611 | 37112 ft | 417 kts | 209° |
| 2026-05-04 06:26 | 30.19958 | 125.03381 | 37108 ft | 417 kts | 209° |
| 2026-05-04 06:27 | 30.06302 | 124.97824 | 37108 ft | 416 kts | 209° |
| 2026-05-04 06:28 | 30.00830 | 124.95602 | 37105 ft | 419 kts | 209° |
| 2026-05-04 06:28 | 29.95368 | 124.93301 | 37104 ft | 416 kts | 211° |
| 2026-05-04 06:29 | 29.89953 | 124.90980 | 37102 ft | 414 kts | 211° |
| 2026-05-04 06:29 | 29.84534 | 124.88660 | 37116 ft | 417 kts | 211° |
| 2026-05-04 06:30 | 29.79078 | 124.86334 | 37112 ft | 415 kts | 211° |
| 2026-05-04 06:30 | 29.73649 | 124.84022 | 37111 ft | 416 kts | 210° |
| 2026-05-04 06:31 | 29.68203 | 124.81705 | 37111 ft | 417 kts | 210° |
| 2026-05-04 06:31 | 29.62767 | 124.79396 | 37109 ft | 419 kts | 210° |
| 2026-05-04 06:33 | 29.40966 | 124.70165 | 37105 ft | 418 kts | 210° |
| 2026-05-04 06:34 | 29.35508 | 124.67861 | 37106 ft | 420 kts | 210° |
| 2026-05-04 06:34 | 29.29999 | 124.65537 | 37102 ft | 419 kts | 210° |
| 2026-05-04 06:36 | 29.08086 | 124.56323 | 37112 ft | 421 kts | 211° |
| 2026-05-04 06:37 | 29.02587 | 124.54017 | 37109 ft | 420 kts | 210° |
| 2026-05-04 06:37 | 28.97082 | 124.51683 | 37103 ft | 418 kts | 213° |
| 2026-05-04 06:38 | 28.92147 | 124.48483 | 37108 ft | 402 kts | 223° |
| 2026-05-04 06:40 | 28.73682 | 124.33624 | 37133 ft | 407 kts | 222° |
| 2026-05-04 06:40 | 28.69056 | 124.29919 | 37121 ft | 407 kts | 222° |
| 2026-05-04 06:41 | 28.64396 | 124.26192 | 37124 ft | 409 kts | 222° |
| 2026-05-04 06:41 | 28.59726 | 124.22462 | 37115 ft | 408 kts | 223° |
| 2026-05-04 06:42 | 28.55072 | 124.18747 | 37117 ft | 409 kts | 223° |
| 2026-05-04 06:44 | 28.36457 | 124.03932 | 37110 ft | 412 kts | 223° |
| 2026-05-04 06:44 | 28.31788 | 124.00229 | 37115 ft | 411 kts | 222° |
| 2026-05-04 06:45 | 28.27135 | 123.96458 | 37112 ft | 409 kts | 223° |
| 2026-05-04 06:45 | 28.22520 | 123.92691 | 37112 ft | 411 kts | 223° |
| 2026-05-04 06:46 | 28.17894 | 123.88925 | 37109 ft | 411 kts | 223° |
| 2026-05-04 06:46 | 28.13232 | 123.85135 | 37109 ft | 411 kts | 223° |
| 2026-05-04 06:48 | 27.94615 | 123.70049 | 37105 ft | 411 kts | 223° |
| 2026-05-04 06:50 | 27.75931 | 123.54859 | 37109 ft | 414 kts | 223° |
| 2026-05-04 06:51 | 27.71226 | 123.51041 | 37112 ft | 415 kts | 223° |
| 2026-05-04 06:51 | 27.66527 | 123.47234 | 37112 ft | 415 kts | 223° |
| 2026-05-04 06:52 | 27.61807 | 123.43413 | 37109 ft | 417 kts | 223° |
| 2026-05-04 06:52 | 27.57114 | 123.39621 | 37114 ft | 416 kts | 223° |
| 2026-05-04 06:53 | 27.52403 | 123.35815 | 37111 ft | 416 kts | 223° |
| 2026-05-04 06:53 | 27.47678 | 123.32003 | 37129 ft | 419 kts | 222° |
| 2026-05-04 06:54 | 27.42953 | 123.28197 | 37135 ft | 417 kts | 222° |
| 2026-05-04 06:54 | 27.38224 | 123.24390 | 37139 ft | 419 kts | 222° |
| 2026-05-04 06:55 | 27.33481 | 123.20576 | 37131 ft | 418 kts | 222° |
| 2026-05-04 06:55 | 27.28749 | 123.16773 | 37134 ft | 421 kts | 222° |
| 2026-05-04 06:57 | 27.09639 | 123.01466 | 37135 ft | 420 kts | 222° |
| 2026-05-04 06:58 | 27.04848 | 122.97642 | 37133 ft | 423 kts | 222° |
| 2026-05-04 06:58 | 27.00075 | 122.93845 | 37134 ft | 420 kts | 222° |
| 2026-05-04 06:59 | 26.95267 | 122.90022 | 37130 ft | 423 kts | 221° |
| 2026-05-04 06:59 | 26.90478 | 122.86219 | 37130 ft | 423 kts | 222° |
| 2026-05-04 07:01 | 26.71252 | 122.70989 | 37118 ft | 426 kts | 221° |
| 2026-05-04 07:02 | 26.66428 | 122.67179 | 37121 ft | 425 kts | 222° |
| 2026-05-04 07:02 | 26.61570 | 122.63342 | 37113 ft | 425 kts | 222° |
| 2026-05-04 07:03 | 26.56750 | 122.59541 | 37112 ft | 424 kts | 222° |
| 2026-05-04 07:03 | 26.51942 | 122.55751 | 37110 ft | 426 kts | 221° |
| 2026-05-04 07:04 | 26.47095 | 122.51936 | 37110 ft | 423 kts | 221° |
| 2026-05-04 07:04 | 26.42277 | 122.48148 | 37110 ft | 426 kts | 222° |
| 2026-05-04 07:05 | 26.37410 | 122.44324 | 37108 ft | 427 kts | 221° |
| 2026-05-04 07:05 | 26.32531 | 122.40495 | 37106 ft | 429 kts | 221° |
| 2026-05-04 07:06 | 26.25254 | 122.34794 | 37108 ft | 427 kts | 221° |
| 2026-05-04 07:07 | 26.20332 | 122.30939 | 37118 ft | 431 kts | 221° |
| 2026-05-04 07:08 | 26.03408 | 122.17870 | 32328 ft | 421 kts | 220° |
| 2026-05-04 07:09 | 26.01029 | 122.16052 | 31591 ft | 420 kts | 220° |
| 2026-05-04 07:09 | 25.98608 | 122.14200 | 30840 ft | 419 kts | 220° |
| 2026-05-04 07:09 | 25.96208 | 122.12367 | 30377 ft | 412 kts | 220° |
| 2026-05-04 07:09 | 25.93857 | 122.10574 | 29965 ft | 406 kts | 221° |
| 2026-05-04 07:10 | 25.91523 | 122.08786 | 29516 ft | 420 kts | 221° |
| 2026-05-04 07:10 | 25.89073 | 122.06913 | 29008 ft | 425 kts | 221° |
| 2026-05-04 07:12 | 25.72511 | 121.94302 | 25517 ft | 405 kts | 220° |
| 2026-05-04 07:12 | 25.70209 | 121.92536 | 25017 ft | 401 kts | 220° |
| 2026-05-04 07:12 | 25.67932 | 121.90780 | 24510 ft | 397 kts | 220° |
| 2026-05-04 07:12 | 25.65787 | 121.88917 | 24005 ft | 390 kts | 227° |
| 2026-05-04 07:13 | 25.63944 | 121.86736 | 23520 ft | 386 kts | 235° |
| 2026-05-04 07:13 | 25.62448 | 121.84312 | 23030 ft | 382 kts | 242° |
| 2026-05-04 07:13 | 25.61138 | 121.81779 | 22539 ft | 378 kts | 243° |
| 2026-05-04 07:14 | 25.56044 | 121.71837 | 20597 ft | 366 kts | 243° |
| 2026-05-04 07:14 | 25.54784 | 121.69383 | 20095 ft | 365 kts | 243° |
| 2026-05-04 07:15 | 25.53536 | 121.66954 | 19601 ft | 363 kts | 242° |
| 2026-05-04 07:15 | 25.52303 | 121.64557 | 19110 ft | 360 kts | 242° |
| 2026-05-04 07:15 | 25.51070 | 121.62161 | 18614 ft | 358 kts | 242° |
| 2026-05-04 07:15 | 25.49850 | 121.59791 | 18122 ft | 355 kts | 243° |
| 2026-05-04 07:16 | 25.48547 | 121.57459 | 17630 ft | 355 kts | 236° |
| 2026-05-04 07:16 | 25.46992 | 121.55356 | 17145 ft | 355 kts | 233° |
| 2026-05-04 07:16 | 25.45400 | 121.53313 | 16654 ft | 354 kts | 232° |
| 2026-05-04 07:16 | 25.43799 | 121.51263 | 16147 ft | 351 kts | 232° |
| 2026-05-04 07:17 | 25.42210 | 121.49229 | 15651 ft | 348 kts | 232° |
| 2026-05-04 07:17 | 25.40630 | 121.47206 | 15150 ft | 345 kts | 232° |
| 2026-05-04 07:17 | 25.39075 | 121.45215 | 14657 ft | 343 kts | 232° |
| 2026-05-04 07:17 | 25.37523 | 121.43232 | 14156 ft | 342 kts | 232° |
| 2026-05-04 07:18 | 25.35972 | 121.41250 | 13659 ft | 341 kts | 232° |
| 2026-05-04 07:18 | 25.34420 | 121.39268 | 13170 ft | 340 kts | 232° |
| 2026-05-04 07:18 | 25.32869 | 121.37289 | 12668 ft | 338 kts | 232° |
| 2026-05-04 07:18 | 25.31351 | 121.35351 | 12175 ft | 335 kts | 232° |
| 2026-05-04 07:19 | 25.29828 | 121.33409 | 11685 ft | 332 kts | 231° |
| 2026-05-04 07:19 | 25.28325 | 121.31493 | 11209 ft | 331 kts | 231° |
| 2026-05-04 07:19 | 25.26827 | 121.29584 | 10813 ft | 327 kts | 231° |
| 2026-05-04 07:19 | 25.25365 | 121.27723 | 10722 ft | 312 kts | 231° |
| 2026-05-04 07:20 | 25.23982 | 121.25964 | 10636 ft | 298 kts | 231° |
| 2026-05-04 07:20 | 25.22649 | 121.24266 | 10524 ft | 286 kts | 231° |
| 2026-05-04 07:20 | 25.21379 | 121.22650 | 10391 ft | 275 kts | 231° |
| 2026-05-04 07:20 | 25.20149 | 121.21084 | 10267 ft | 265 kts | 231° |
| 2026-05-04 07:22 | 25.12286 | 121.11092 | 8513 ft | 239 kts | 230° |
| 2026-05-04 07:22 | 25.11195 | 121.09707 | 8206 ft | 238 kts | 230° |
| 2026-05-04 07:23 | 25.10125 | 121.08347 | 7928 ft | 236 kts | 230° |
| 2026-05-04 07:23 | 25.09048 | 121.06979 | 7631 ft | 240 kts | 230° |
| 2026-05-04 07:23 | 25.07921 | 121.05545 | 7327 ft | 247 kts | 230° |
| 2026-05-04 07:23 | 25.06795 | 121.04117 | 7048 ft | 247 kts | 229° |
| 2026-05-04 07:24 | 25.05675 | 121.02696 | 6760 ft | 247 kts | 229° |
| 2026-05-04 07:24 | 25.04558 | 121.01279 | 6469 ft | 246 kts | 229° |
| 2026-05-04 07:24 | 25.03426 | 120.99843 | 6153 ft | 245 kts | 229° |
| 2026-05-04 07:24 | 25.02309 | 120.98426 | 5852 ft | 245 kts | 229° |
| 2026-05-04 07:25 | 25.01198 | 120.97017 | 5566 ft | 244 kts | 228° |
| 2026-05-04 07:26 | 24.92679 | 120.98983 | 4129 ft | 207 kts | 123° |
| 2026-05-04 07:27 | 24.92033 | 121.00348 | 4031 ft | 200 kts | 98° |
| 2026-05-04 07:27 | 24.92118 | 121.01854 | 3927 ft | 197 kts | 69° |
| 2026-05-04 07:27 | 24.92779 | 121.03154 | 3848 ft | 193 kts | 57° |
| 2026-05-04 07:27 | 24.93562 | 121.04299 | 3748 ft | 181 kts | 52° |
| 2026-05-04 07:28 | 24.94358 | 121.05327 | 3658 ft | 172 kts | 51° |
| 2026-05-04 07:28 | 24.95154 | 121.06321 | 3558 ft | 170 kts | 50° |
| 2026-05-04 07:28 | 24.95935 | 121.07295 | 3345 ft | 168 kts | 51° |
| 2026-05-04 07:28 | 24.96701 | 121.08253 | 3139 ft | 164 kts | 50° |
| 2026-05-04 07:29 | 24.97454 | 121.09197 | 2941 ft | 161 kts | 51° |
| 2026-05-04 07:29 | 24.98174 | 121.10102 | 2747 ft | 155 kts | 51° |
| 2026-05-04 07:29 | 24.98876 | 121.10986 | 2558 ft | 149 kts | 51° |
| 2026-05-04 07:29 | 24.99548 | 121.11835 | 2383 ft | 146 kts | 51° |
| 2026-05-04 07:30 | 25.00215 | 121.12677 | 2187 ft | 142 kts | 51° |
| 2026-05-04 07:30 | 25.00876 | 121.13511 | 1994 ft | 146 kts | 51° |
| 2026-05-04 07:30 | 25.01527 | 121.14333 | 1809 ft | 136 kts | 51° |
| 2026-05-04 07:30 | 25.02130 | 121.15094 | 1631 ft | 123 kts | 51° |
| 2026-05-04 07:31 | 25.02675 | 121.15782 | 1482 ft | 120 kts | 51° |
| 2026-05-04 07:31 | 25.03231 | 121.16486 | 1326 ft | 122 kts | 51° |
| 2026-05-04 07:33 | 25.07283 | 121.21580 | 177 ft | 130 kts | 51° |
| 2026-05-04 07:33 | 25.07845 | 121.22301 | 121 ft | 108 kts | 49° |
| 2026-05-04 07:33 | 25.08253 | 121.22824 | 121 ft | 71 kts | 49° |
| 2026-05-04 07:33 | 25.08429 | 121.23093 | 121 ft | 29 kts | 72° |
| 2026-05-04 07:34 | 25.08459 | 121.23245 | 121 ft | 11 kts | 78° |
| 2026-05-04 07:34 | 25.08475 | 121.23325 | 121 ft | 10 kts | 78° |
| 2026-05-04 07:34 | 25.08492 | 121.23398 | 121 ft | 9 kts | 68° |
| 2026-05-04 07:34 | 25.08527 | 121.23470 | 121 ft | 12 kts | 57° |
| 2026-05-04 07:35 | 25.08586 | 121.23559 | 121 ft | 16 kts | 51° |
| 2026-05-04 07:35 | 25.08671 | 121.23666 | 121 ft | 20 kts | 49° |
| 2026-05-04 07:35 | 25.08739 | 121.23791 | 121 ft | 18 kts | 104° |
| 2026-05-04 07:35 | 25.08643 | 121.23901 | 121 ft | 21 kts | 139° |
| 2026-05-04 07:36 | 25.08520 | 121.24017 | 121 ft | 24 kts | 139° |
| 2026-05-04 07:36 | 25.08396 | 121.24135 | 121 ft | 22 kts | 139° |
| 2026-05-04 07:38 | 25.07793 | 121.23882 | 121 ft | 17 kts | 229° |
| 2026-05-04 07:38 | 25.07707 | 121.23772 | 121 ft | 20 kts | 229° |
| 2026-05-04 07:38 | 25.07613 | 121.23649 | 121 ft | 22 kts | 230° |
| 2026-05-04 07:38 | 25.07509 | 121.23520 | 121 ft | 19 kts | 228° |
| 2026-05-04 07:39 | 25.07496 | 121.23438 | 121 ft | 11 kts | 309° |
| 2026-05-04 07:39 | 25.07545 | 121.23387 | 121 ft | 0 kts | 318° |
| 2026-05-04 07:39 | 25.07549 | 121.23383 | 121 ft | 1 kts | 318° |